createdAt,value
2019-05-18T00:02:12.457Z,68.30
2019-05-18T00:04:43.371Z,68.30
2019-05-18T00:07:14.384Z,68.40
2019-05-18T00:09:45.263Z,68.50
2019-05-18T00:12:16.169Z,68.50
2019-05-18T00:14:47.049Z,68.80
2019-05-18T00:17:25.348Z,68.80
2019-05-18T00:19:50.480Z,68.90
2019-05-18T00:22:21.397Z,69.00
2019-05-18T00:24:52.352Z,69.10
2019-05-18T00:27:23.324Z,69.30
2019-05-18T00:29:54.420Z,69.30
2019-05-18T00:32:25.318Z,69.20
2019-05-18T00:34:56.335Z,69.40
2019-05-18T00:37:27.588Z,69.30
2019-05-18T00:39:58.457Z,69.60
2019-05-18T00:42:29.357Z,69.50
2019-05-18T00:45:00.567Z,69.60
2019-05-18T00:47:40.839Z,69.70
2019-05-18T00:50:04.051Z,69.90
2019-05-18T00:52:35.067Z,70.00
2019-05-18T00:55:06.445Z,70.10
2019-05-18T00:57:37.306Z,70.20
2019-05-18T01:00:08.982Z,70.50
2019-05-18T01:02:39.868Z,70.50
2019-05-18T01:05:10.871Z,70.50
2019-05-18T01:07:42.066Z,70.60
2019-05-18T01:10:13.793Z,70.90
2019-05-18T01:12:44.711Z,70.90
2019-05-18T01:15:15.917Z,71.00
2019-05-18T01:17:57.037Z,71.20
2019-05-18T01:20:19.546Z,71.30
2019-05-18T01:22:50.485Z,71.30
2019-05-18T01:25:21.561Z,71.60
2019-05-18T01:27:52.514Z,71.50
2019-05-18T01:30:23.638Z,71.70
2019-05-18T01:32:54.925Z,71.80
2019-05-18T01:35:25.842Z,71.80
2019-05-18T01:37:56.758Z,71.90
2019-05-18T01:40:27.638Z,72.00
2019-05-18T01:42:59.554Z,72.00
2019-05-18T01:45:30.422Z,72.30
2019-05-18T01:48:13.366Z,72.30
2019-05-18T01:50:35.255Z,72.40
2019-05-18T01:53:06.149Z,73.00
2019-05-18T01:55:37.369Z,72.40
2019-05-18T01:58:08.619Z,72.30
2019-05-18T02:00:39.503Z,72.50
2019-05-18T02:03:10.375Z,72.60
2019-05-18T02:05:41.304Z,72.70
2019-05-18T02:08:12.202Z,72.70
2019-05-18T02:10:43.391Z,72.80
2019-05-18T02:13:14.171Z,72.90
2019-05-18T02:15:45.083Z,72.90
2019-05-18T02:18:28.256Z,73.00
2019-05-18T02:20:48.553Z,73.00
2019-05-18T02:23:19.436Z,73.10
2019-05-18T02:25:50.418Z,73.30
2019-05-18T02:28:21.335Z,73.90
2019-05-18T02:30:52.255Z,73.30
2019-05-18T02:33:23.142Z,73.40
2019-05-18T02:35:54.478Z,73.50
2019-05-18T02:38:25.386Z,73.60
2019-05-18T02:40:56.225Z,73.70
2019-05-18T02:43:27.135Z,73.90
2019-05-18T02:45:58.014Z,74.00
2019-05-18T02:48:47.117Z,74.00
2019-05-18T02:51:01.398Z,74.00
2019-05-18T02:53:32.240Z,74.20
2019-05-18T02:56:03.105Z,74.30
2019-05-18T02:58:33.934Z,74.40
2019-05-18T03:01:04.894Z,74.40
2019-05-18T03:03:35.893Z,74.40
2019-05-18T03:06:06.884Z,74.50
2019-05-18T03:08:37.846Z,75.20
2019-05-18T03:11:08.746Z,74.50
2019-05-18T03:13:39.688Z,74.80
2019-05-18T03:16:11.006Z,74.80
2019-05-18T03:18:41.860Z,75.10
2019-05-18T03:21:12.818Z,75.20
2019-05-18T03:23:43.655Z,75.20
2019-05-18T03:26:14.570Z,75.20
2019-05-18T03:28:45.480Z,75.30
2019-05-18T03:31:16.381Z,75.20
2019-05-18T03:33:47.270Z,75.40
2019-05-18T03:36:18.075Z,75.40
2019-05-18T03:38:49.323Z,75.40
2019-05-18T03:41:20.600Z,75.70
2019-05-18T03:43:51.460Z,75.60
2019-05-18T03:46:24.109Z,75.80
2019-05-18T03:48:54.858Z,75.80
2019-05-18T03:51:25.842Z,75.90
2019-05-18T03:53:56.659Z,75.90
2019-05-18T03:56:28.502Z,75.90
2019-05-18T03:58:59.468Z,76.10
2019-05-18T04:01:30.384Z,76.20
2019-05-18T04:04:01.666Z,76.20
2019-05-18T04:06:32.905Z,76.10
2019-05-18T04:09:04.777Z,76.20
2019-05-18T04:11:35.664Z,76.30
2019-05-18T04:14:08.479Z,76.30
2019-05-18T04:16:39.066Z,76.40
2019-05-18T04:19:10.004Z,77.10
2019-05-18T04:21:40.834Z,76.40
2019-05-18T04:24:11.740Z,76.30
2019-05-18T04:26:42.664Z,76.40
2019-05-18T04:29:13.631Z,76.40
2019-05-18T04:31:44.526Z,76.20
2019-05-18T04:34:15.476Z,76.20
2019-05-18T04:36:46.345Z,76.10
2019-05-18T04:39:17.287Z,75.00
2019-05-18T04:41:48.129Z,73.90
2019-05-18T04:44:19.324Z,73.30
2019-05-18T04:46:50.164Z,73.00
2019-05-18T04:49:21.078Z,73.30
2019-05-18T04:51:52.546Z,73.50
2019-05-18T04:54:23.428Z,73.50
2019-05-18T04:56:54.272Z,73.50
2019-05-18T04:59:26.161Z,72.30
2019-05-18T05:01:57.151Z,71.10
2019-05-18T05:04:28.139Z,71.00
2019-05-18T05:06:59.074Z,71.50
2019-05-18T05:09:29.993Z,72.70
2019-05-18T05:12:00.873Z,71.70
2019-05-18T05:14:31.835Z,72.00
2019-05-18T05:17:02.735Z,72.30
2019-05-18T05:19:33.549Z,71.30
2019-05-18T05:22:04.393Z,71.00
2019-05-18T05:24:35.200Z,70.10
2019-05-18T05:27:06.150Z,70.50
2019-05-18T05:29:36.960Z,69.00
2019-05-18T05:32:07.833Z,69.30
2019-05-18T05:34:38.724Z,70.10
2019-05-18T05:37:09.647Z,70.50
2019-05-18T05:39:40.601Z,70.00
2019-05-18T05:42:11.926Z,68.70
2019-05-18T05:44:43.122Z,67.40
2019-05-18T05:47:14.017Z,63.80
2019-05-18T05:49:44.920Z,62.70
2019-05-18T05:52:15.815Z,62.50
2019-05-18T05:54:46.754Z,61.70
2019-05-18T05:57:17.628Z,59.20
2019-05-18T05:59:48.489Z,59.40
2019-05-18T06:02:19.692Z,59.00
2019-05-18T06:04:50.901Z,58.40
2019-05-18T06:07:21.747Z,54.90
2019-05-18T06:09:53.407Z,51.90
2019-05-18T06:12:25.420Z,48.60
2019-05-18T06:14:56.396Z,45.40
2019-05-18T06:17:27.266Z,43.60
2019-05-18T06:19:58.214Z,42.60
2019-05-18T06:22:29.075Z,41.30
2019-05-18T06:24:59.991Z,40.70
2019-05-18T06:27:30.848Z,39.60
2019-05-18T06:30:01.763Z,38.80
2019-05-18T06:32:32.694Z,37.20
2019-05-18T06:35:03.655Z,36.50
2019-05-18T06:37:34.545Z,36.20
2019-05-18T06:40:06.182Z,35.40
2019-05-18T06:42:37.134Z,34.40
2019-05-18T06:45:09.625Z,33.70
2019-05-18T06:47:40.811Z,32.10
2019-05-18T06:50:13.207Z,31.70
2019-05-18T06:52:44.325Z,30.70
2019-05-18T06:55:15.536Z,30.50
2019-05-18T06:57:47.358Z,29.80
2019-05-18T07:00:18.649Z,29.20
2019-05-18T07:02:50.025Z,28.60
2019-05-18T07:05:20.861Z,28.80
2019-05-18T07:07:52.075Z,28.70
2019-05-18T07:10:22.952Z,29.00
2019-05-18T07:12:54.042Z,28.90
2019-05-18T07:15:25.332Z,28.20
2019-05-18T07:17:56.273Z,27.80
2019-05-18T07:20:27.167Z,28.10
2019-05-18T07:22:58.090Z,28.30
2019-05-18T07:25:28.898Z,27.90
2019-05-18T07:27:59.820Z,27.30
2019-05-18T07:30:30.673Z,26.70
2019-05-18T07:33:01.774Z,26.60
2019-05-18T07:35:32.657Z,26.10
2019-05-18T07:38:03.561Z,25.40
2019-05-18T07:40:34.530Z,25.00
2019-05-18T07:43:05.380Z,24.50
2019-05-18T07:45:36.573Z,24.20
2019-05-18T07:48:07.497Z,23.50
2019-05-18T07:50:38.456Z,23.40
2019-05-18T07:53:09.407Z,23.30
2019-05-18T07:55:40.170Z,23.00
2019-05-18T07:58:11.415Z,22.80
2019-05-18T08:00:42.746Z,22.10
2019-05-18T08:03:14.421Z,22.20
2019-05-18T08:05:45.400Z,22.20
2019-05-18T08:08:16.278Z,21.80
2019-05-18T08:10:47.091Z,21.70
2019-05-18T08:13:18.112Z,21.60
2019-05-18T08:15:49.006Z,21.00
2019-05-18T08:18:21.224Z,21.10
2019-05-18T08:20:52.198Z,21.00
2019-05-18T08:23:23.099Z,20.80
2019-05-18T08:25:53.970Z,20.80
2019-05-18T08:28:24.777Z,20.30
2019-05-18T08:30:55.686Z,20.10
2019-05-18T08:33:26.527Z,19.80
2019-05-18T08:35:57.451Z,19.70
2019-05-18T08:38:28.361Z,19.50
2019-05-18T08:40:59.325Z,19.40
2019-05-18T08:43:30.213Z,19.50
2019-05-18T08:46:01.188Z,19.40
2019-05-18T08:48:32.095Z,19.30
2019-05-18T08:51:02.981Z,19.10
2019-05-18T08:53:34.226Z,18.80
2019-05-18T08:56:05.116Z,18.70
2019-05-18T08:58:36.090Z,18.80
2019-05-18T09:01:06.921Z,18.50
2019-05-18T09:03:38.212Z,18.60
2019-05-18T09:06:09.123Z,18.90
2019-05-18T09:08:39.987Z,19.00
2019-05-18T09:11:10.893Z,19.00
2019-05-18T09:13:41.832Z,18.70
2019-05-18T09:16:13.017Z,18.70
2019-05-18T09:18:44.020Z,18.50
2019-05-18T09:21:14.857Z,18.40
2019-05-18T09:23:45.890Z,18.10
2019-05-18T09:26:16.869Z,18.00
2019-05-18T09:28:47.740Z,18.20
2019-05-18T09:31:18.631Z,18.90
2019-05-18T09:33:49.557Z,18.30
2019-05-18T09:36:20.399Z,18.30
2019-05-18T09:38:51.382Z,18.10
2019-05-18T09:41:22.634Z,17.80
2019-05-18T09:43:53.514Z,18.00
2019-05-18T09:46:24.516Z,18.30
2019-05-18T09:48:55.557Z,17.90
2019-05-18T09:51:26.429Z,18.10
2019-05-18T09:53:57.440Z,18.20
2019-05-18T09:56:28.338Z,17.90
2019-05-18T09:59:00.711Z,18.20
2019-05-18T10:01:32.531Z,18.30
2019-05-18T10:04:03.447Z,18.20
2019-05-18T10:06:34.387Z,18.40
2019-05-18T10:09:07.411Z,18.60
2019-05-18T10:11:38.945Z,18.40
2019-05-18T10:14:10.410Z,18.70
2019-05-18T10:16:41.361Z,18.60
2019-05-18T10:19:13.346Z,19.00
2019-05-18T10:21:44.230Z,19.00
2019-05-18T10:24:15.176Z,19.20
2019-05-18T10:26:46.075Z,19.20
2019-05-18T10:29:17.877Z,19.40
2019-05-18T10:31:49.170Z,19.40
2019-05-18T10:34:20.440Z,19.60
2019-05-18T10:36:51.402Z,19.60
2019-05-18T10:39:22.487Z,20.00
2019-05-18T10:41:53.874Z,20.20
2019-05-18T10:44:24.832Z,20.60
2019-05-18T10:46:55.785Z,21.20
2019-05-18T10:49:26.655Z,22.40
2019-05-18T10:51:57.613Z,22.80
2019-05-18T10:54:28.485Z,23.40
2019-05-18T10:57:00.750Z,24.00
2019-05-18T10:59:31.574Z,24.40
2019-05-18T11:02:02.403Z,24.50
2019-05-18T11:04:33.725Z,24.90
2019-05-18T11:07:04.620Z,24.80
2019-05-18T11:09:35.508Z,25.00
2019-05-18T11:12:06.878Z,25.40
2019-05-18T11:14:37.762Z,25.50
2019-05-18T11:17:08.594Z,26.20
2019-05-18T11:19:39.395Z,25.90
2019-05-18T11:22:10.737Z,26.10
2019-05-18T11:24:52.931Z,26.30
2019-05-18T11:27:23.828Z,26.50
2019-05-18T11:29:54.795Z,26.70
2019-05-18T11:32:25.670Z,26.90
2019-05-18T11:34:56.615Z,27.00
2019-05-18T11:37:27.518Z,27.10
2019-05-18T11:39:58.474Z,27.20
2019-05-18T11:42:29.431Z,27.40
2019-05-18T11:45:00.314Z,27.60
2019-05-18T11:47:31.176Z,27.70
2019-05-18T11:50:02.110Z,27.90
2019-05-18T11:52:34.801Z,28.10
2019-05-18T11:55:06.694Z,28.30
2019-05-18T11:57:37.802Z,28.40
2019-05-18T12:00:09.707Z,28.50
2019-05-18T12:02:40.952Z,28.50
2019-05-18T12:05:12.254Z,28.80
2019-05-18T12:07:43.191Z,28.90
2019-05-18T12:10:14.429Z,29.30
2019-05-18T12:12:45.366Z,29.20
2019-05-18T12:15:17.796Z,29.30
2019-05-18T12:17:49.021Z,29.40
2019-05-18T12:20:21.514Z,29.70
2019-05-18T12:22:52.537Z,29.70
2019-05-18T12:25:23.505Z,29.90
2019-05-18T12:27:54.441Z,29.90
2019-05-18T12:30:25.721Z,30.00
2019-05-18T12:32:56.683Z,30.00
2019-05-18T12:35:27.603Z,30.00
2019-05-18T12:37:58.448Z,30.10
2019-05-18T12:40:29.567Z,30.10
2019-05-18T12:43:00.565Z,30.20
2019-05-18T12:45:31.491Z,30.40
2019-05-18T12:48:02.329Z,30.60
2019-05-18T12:50:33.272Z,30.80
2019-05-18T12:53:04.349Z,30.90
2019-05-18T12:55:35.356Z,31.20
2019-05-18T12:58:06.274Z,31.50
2019-05-18T13:00:37.226Z,31.60
2019-05-18T13:03:08.131Z,32.00
2019-05-18T13:05:39.036Z,32.10
2019-05-18T13:08:11.127Z,32.40
2019-05-18T13:10:42.262Z,32.30
2019-05-18T13:13:13.305Z,32.40
2019-05-18T13:15:44.600Z,32.50
2019-05-18T13:18:15.605Z,32.40
2019-05-18T13:20:46.813Z,32.50
2019-05-18T13:23:17.757Z,32.30
2019-05-18T13:25:49.266Z,32.40
2019-05-18T13:28:20.679Z,32.40
2019-05-18T13:30:51.717Z,32.30
2019-05-18T13:33:22.865Z,32.60
2019-05-18T13:35:53.893Z,32.80
2019-05-18T13:38:25.118Z,33.30
2019-05-18T13:40:56.150Z,33.20
2019-05-18T13:43:27.405Z,33.30
2019-05-18T13:45:58.709Z,33.40
2019-05-18T13:48:29.545Z,33.50
2019-05-18T13:51:00.788Z,33.50
2019-05-18T13:53:32.027Z,33.70
2019-05-18T13:56:03.007Z,33.70
2019-05-18T13:58:34.062Z,33.90
2019-05-18T14:01:07.087Z,34.00
2019-05-18T14:03:38.245Z,34.10
2019-05-18T14:06:09.208Z,34.20
2019-05-18T14:08:40.183Z,34.30
2019-05-18T14:11:11.098Z,34.20
2019-05-18T14:13:42.021Z,34.30
2019-05-18T14:16:12.934Z,34.50
2019-05-18T14:18:43.859Z,34.60
2019-05-18T14:21:14.734Z,34.60
2019-05-18T14:23:46.366Z,34.80
2019-05-18T14:26:17.328Z,34.80
2019-05-18T14:28:48.148Z,34.90
2019-05-18T14:31:19.712Z,35.00
2019-05-18T14:33:51.033Z,35.00
2019-05-18T14:36:21.896Z,35.00
2019-05-18T14:38:56.968Z,35.10
2019-05-18T14:41:25.887Z,35.20
2019-05-18T14:43:56.793Z,35.30
2019-05-18T14:46:27.893Z,35.50
2019-05-18T14:48:58.929Z,35.50
2019-05-18T14:51:30.165Z,35.70
2019-05-18T14:54:01.691Z,35.90
2019-05-18T14:56:36.017Z,36.10
2019-05-18T14:59:06.933Z,36.30
2019-05-18T15:01:37.942Z,36.40
2019-05-18T15:04:08.950Z,36.50
2019-05-18T15:06:40.206Z,36.60
2019-05-18T15:09:11.249Z,36.70
2019-05-18T15:11:42.241Z,36.70
2019-05-18T15:14:13.157Z,36.90
2019-05-18T15:16:44.053Z,36.80
2019-05-18T15:19:14.944Z,36.90
2019-05-18T15:21:46.567Z,36.80
2019-05-18T15:24:17.583Z,36.90
2019-05-18T15:26:48.550Z,36.90
2019-05-18T15:29:19.495Z,36.90
2019-05-18T15:31:50.342Z,36.80
2019-05-18T15:34:21.232Z,36.80
2019-05-18T15:36:53.200Z,36.80
2019-05-18T15:39:24.314Z,37.50
2019-05-18T15:41:55.613Z,36.80
2019-05-18T15:44:26.625Z,36.80
2019-05-18T15:46:57.462Z,36.90
2019-05-18T15:49:28.398Z,36.90
2019-05-18T15:51:59.319Z,37.00
2019-05-18T15:54:30.208Z,37.00
2019-05-18T15:57:01.127Z,37.10
2019-05-18T15:59:32.155Z,37.20
2019-05-18T16:02:06.410Z,37.20
2019-05-18T16:04:38.155Z,37.20
2019-05-18T16:07:09.709Z,37.10
2019-05-18T16:09:41.665Z,37.10
2019-05-18T16:12:12.638Z,37.10
2019-05-18T16:14:43.504Z,37.10
2019-05-18T16:17:14.686Z,37.00
2019-05-18T16:19:46.011Z,36.90
2019-05-18T16:22:16.952Z,36.70
2019-05-18T16:24:47.814Z,36.80
2019-05-18T16:27:18.936Z,36.80
2019-05-18T16:29:50.292Z,36.70
2019-05-18T16:32:21.251Z,36.70
2019-05-18T16:34:52.600Z,36.80
2019-05-18T16:37:23.602Z,36.90
2019-05-18T16:39:54.788Z,37.50
2019-05-18T16:42:25.725Z,36.80
2019-05-18T16:44:56.807Z,36.90
2019-05-18T16:47:27.961Z,37.50
2019-05-18T16:49:58.924Z,37.00
2019-05-18T16:52:29.979Z,37.10
2019-05-18T16:55:00.990Z,37.10
2019-05-18T16:57:31.909Z,37.20
2019-05-18T17:00:02.779Z,37.30
2019-05-18T17:02:35.347Z,37.30
2019-05-18T17:05:07.003Z,37.40
2019-05-18T17:07:38.203Z,37.30
2019-05-18T17:10:10.736Z,37.30
2019-05-18T17:12:43.243Z,37.50
2019-05-18T17:15:14.519Z,37.50
2019-05-18T17:17:45.595Z,37.60
2019-05-18T17:20:18.562Z,37.50
2019-05-18T17:22:49.668Z,37.50
2019-05-18T17:25:22.863Z,37.50
2019-05-18T17:27:53.837Z,37.70
2019-05-18T17:30:26.582Z,37.60
2019-05-18T17:32:57.680Z,37.80
2019-05-18T17:35:28.574Z,37.90
2019-05-18T17:37:59.483Z,38.80
2019-05-18T17:40:30.603Z,38.10
2019-05-18T17:43:01.498Z,38.20
2019-05-18T17:45:32.689Z,38.30
2019-05-18T17:48:03.716Z,38.30
2019-05-18T17:50:34.722Z,38.40
2019-05-18T17:53:07.414Z,38.50
2019-05-18T17:55:38.373Z,38.50
2019-05-18T17:58:09.342Z,38.60
2019-05-18T18:00:40.218Z,38.70
2019-05-18T18:03:11.074Z,38.90
2019-05-18T18:05:41.967Z,39.00
2019-05-18T18:08:12.792Z,39.10
2019-05-18T18:10:44.337Z,39.20
2019-05-18T18:13:15.208Z,39.40
2019-05-18T18:15:46.079Z,39.60
2019-05-18T18:18:17.006Z,39.70
2019-05-18T18:20:47.905Z,39.80
2019-05-18T18:23:18.690Z,39.90
2019-05-18T18:25:49.603Z,40.10
2019-05-18T18:28:20.532Z,40.20
2019-05-18T18:30:51.349Z,40.30
2019-05-18T18:33:22.165Z,40.50
2019-05-18T18:35:53.145Z,40.70
2019-05-18T18:38:24.106Z,40.70
2019-05-18T18:40:54.965Z,40.80
2019-05-18T18:43:25.843Z,41.00
2019-05-18T18:45:56.868Z,41.30
2019-05-18T18:48:27.782Z,41.90
2019-05-18T18:50:58.662Z,41.50
2019-05-18T18:53:29.613Z,41.60
2019-05-18T18:56:00.513Z,41.80
2019-05-18T18:58:31.866Z,41.80
2019-05-18T19:01:03.061Z,41.90
2019-05-18T19:03:33.982Z,42.10
2019-05-18T19:06:05.236Z,42.10
2019-05-18T19:08:36.193Z,42.30
2019-05-18T19:11:07.157Z,42.40
2019-05-18T19:13:38.018Z,42.50
2019-05-18T19:16:08.909Z,42.70
2019-05-18T19:18:40.228Z,42.70
2019-05-18T19:21:12.491Z,42.80
2019-05-18T19:23:45.327Z,43.00
2019-05-18T19:26:16.435Z,43.00
2019-05-18T19:28:47.447Z,43.20
2019-05-18T19:31:18.426Z,43.20
2019-05-18T19:33:49.335Z,43.20
2019-05-18T19:36:20.463Z,43.30
2019-05-18T19:38:51.987Z,43.50
2019-05-18T19:41:24.083Z,43.60
2019-05-18T19:43:54.978Z,43.70
2019-05-18T19:46:26.102Z,43.70
2019-05-18T19:48:58.217Z,43.80
2019-05-18T19:51:29.300Z,44.00
2019-05-18T19:54:00.099Z,44.00
2019-05-18T19:56:39.485Z,44.10
2019-05-18T19:59:05.257Z,44.10
2019-05-18T20:01:36.224Z,44.30
2019-05-18T20:04:08.202Z,44.60
2019-05-18T20:06:39.497Z,44.40
2019-05-18T20:09:14.728Z,44.40
2019-05-18T20:11:46.782Z,44.50
2019-05-18T20:14:17.827Z,44.70
2019-05-18T20:16:48.910Z,44.70
2019-05-18T20:19:21.791Z,44.80
2019-05-18T20:21:53.003Z,44.90
2019-05-18T20:24:23.959Z,45.00
2019-05-18T20:27:04.796Z,45.00
2019-05-18T20:29:40.321Z,45.10
2019-05-18T20:32:11.889Z,45.10
2019-05-18T20:34:43.590Z,45.30
2019-05-18T20:37:15.298Z,45.30
2019-05-18T20:39:46.264Z,45.40
2019-05-18T20:42:17.119Z,45.50
2019-05-18T20:44:48.086Z,46.30
2019-05-18T20:47:19.213Z,45.70
2019-05-18T20:49:50.105Z,46.40
2019-05-18T20:52:21.661Z,45.90
2019-05-18T20:54:52.981Z,45.90
2019-05-18T20:57:24.780Z,46.00
2019-05-18T20:59:55.861Z,46.10
2019-05-18T21:02:27.664Z,46.20
2019-05-18T21:04:59.050Z,46.30
2019-05-18T21:07:29.997Z,46.30
2019-05-18T21:10:00.922Z,46.40
2019-05-18T21:12:31.877Z,46.60
2019-05-18T21:15:03.895Z,46.80
2019-05-18T21:17:34.915Z,47.10
2019-05-18T21:20:05.888Z,47.10
2019-05-18T21:22:36.733Z,47.30
2019-05-18T21:25:07.677Z,47.90
2019-05-18T21:27:38.562Z,47.50
2019-05-18T21:30:09.835Z,47.60
2019-05-18T21:32:40.855Z,47.60
2019-05-18T21:35:11.909Z,47.60
2019-05-18T21:37:42.895Z,47.70
2019-05-18T21:40:14.231Z,47.90
2019-05-18T21:42:45.138Z,47.90
2019-05-18T21:45:16.251Z,48.00
2019-05-18T21:47:47.218Z,48.10
2019-05-18T21:50:18.319Z,48.10
2019-05-18T21:52:49.376Z,48.20
2019-05-18T21:55:20.342Z,48.30
2019-05-18T21:57:51.255Z,48.40
2019-05-18T22:00:24.108Z,48.50
2019-05-18T22:02:56.609Z,48.60
2019-05-18T22:05:27.769Z,48.70
2019-05-18T22:07:58.781Z,48.90
2019-05-18T22:10:29.663Z,48.90
2019-05-18T22:13:00.474Z,49.00
2019-05-18T22:15:31.629Z,49.20
2019-05-18T22:18:05.327Z,49.20
2019-05-18T22:20:43.166Z,49.40
2019-05-18T22:23:09.720Z,49.60
2019-05-18T22:25:40.623Z,49.80
2019-05-18T22:28:11.410Z,49.90
2019-05-18T22:30:44.025Z,50.10
2019-05-18T22:33:16.495Z,50.30
2019-05-18T22:35:47.398Z,50.40
2019-05-18T22:38:18.322Z,50.50
2019-05-18T22:40:49.158Z,50.60
2019-05-18T22:43:20.094Z,50.80
2019-05-18T22:45:50.998Z,50.90
2019-05-18T22:48:21.862Z,51.00
2019-05-18T22:50:53.142Z,51.30
2019-05-18T22:53:24.317Z,51.30
2019-05-18T22:55:55.537Z,51.40
2019-05-18T22:58:26.344Z,51.70
2019-05-18T23:01:16.281Z,51.70
2019-05-18T23:03:47.188Z,51.80
2019-05-18T23:06:18.413Z,52.00
2019-05-18T23:08:49.839Z,52.10
2019-05-18T23:11:22.690Z,52.20
2019-05-18T23:13:55.479Z,52.40
2019-05-18T23:16:26.352Z,52.50
2019-05-18T23:18:57.495Z,53.30
2019-05-18T23:21:28.396Z,52.90
2019-05-18T23:23:59.413Z,52.90
2019-05-18T23:26:30.297Z,53.20
2019-05-18T23:29:01.078Z,53.30
2019-05-18T23:31:32.404Z,53.50
2019-05-18T23:34:03.347Z,53.70
2019-05-18T23:36:34.181Z,53.80
2019-05-18T23:39:06.151Z,54.00
2019-05-18T23:41:38.221Z,54.20
2019-05-18T23:44:09.401Z,54.30
2019-05-18T23:46:40.347Z,54.50
2019-05-18T23:49:11.483Z,54.60
2019-05-18T23:51:42.531Z,54.70
2019-05-18T23:54:13.384Z,54.80
2019-05-18T23:56:44.278Z,55.00
2019-05-18T23:59:15.159Z,55.10
